createdAt,value
2022-11-16T00:01:44.731Z,97275.00
2022-11-16T00:04:13.074Z,97278.00
2022-11-16T00:06:41.653Z,97285.00
2022-11-16T00:09:23.326Z,97285.00
2022-11-16T00:11:52.331Z,97271.00
2022-11-16T00:14:20.554Z,97276.00
2022-11-16T00:16:50.490Z,97265.00
2022-11-16T00:19:18.691Z,97261.00
2022-11-16T00:21:46.768Z,97258.00
2022-11-16T00:24:28.237Z,97248.00
2022-11-16T00:26:57.337Z,97243.00
2022-11-16T00:29:26.393Z,97253.00
2022-11-16T00:31:55.916Z,97248.00
2022-11-16T00:34:26.899Z,97252.00
2022-11-16T00:36:54.911Z,97262.00
2022-11-16T00:39:23.039Z,97268.00
2022-11-16T00:41:51.201Z,97266.00
2022-11-16T00:44:19.584Z,97270.00
2022-11-16T00:46:47.634Z,97272.00
2022-11-16T00:49:18.200Z,97268.00
2022-11-16T00:51:49.293Z,97265.00
2022-11-16T00:54:17.320Z,97261.00
2022-11-16T00:56:45.395Z,97260.00
2022-11-16T00:59:13.442Z,97266.00
2022-11-16T01:01:41.512Z,97269.00
2022-11-16T01:04:09.595Z,97269.00
2022-11-16T01:06:39.216Z,97274.00
2022-11-16T01:09:08.444Z,97274.00
2022-11-16T01:11:54.309Z,97270.00
2022-11-16T01:14:22.393Z,97286.00
2022-11-16T01:16:50.826Z,97274.00
2022-11-16T01:19:21.891Z,97283.00
2022-11-16T01:21:51.487Z,97273.00
2022-11-16T01:24:19.521Z,97274.00
2022-11-16T01:26:47.545Z,97272.00
2022-11-16T01:29:15.585Z,97262.00
2022-11-16T01:31:44.179Z,97262.00
2022-11-16T01:34:12.380Z,97261.00
2022-11-16T01:36:40.478Z,97253.00
2022-11-16T01:39:11.099Z,97257.00
2022-11-16T01:41:39.197Z,97254.00
2022-11-16T01:44:08.482Z,97263.00
2022-11-16T01:46:36.580Z,97243.00
2022-11-16T01:49:05.415Z,97264.00
2022-11-16T01:51:33.539Z,97249.00
2022-11-16T01:54:02.364Z,97255.00
2022-11-16T01:56:32.680Z,97257.00
2022-11-16T01:59:00.794Z,97247.00
2022-11-16T02:01:28.912Z,97245.00
2022-11-16T02:03:57.036Z,97249.00
2022-11-16T02:06:39.186Z,97253.00
2022-11-16T02:09:43.965Z,97245.00
2022-11-16T02:12:37.543Z,97256.00
2022-11-16T02:15:11.928Z,97246.00
2022-11-16T02:17:42.477Z,97248.00
2022-11-16T02:20:46.192Z,97245.00
2022-11-16T02:23:49.761Z,97234.00
2022-11-16T02:26:33.162Z,97235.00
2022-11-16T02:29:20.540Z,97241.00
2022-11-16T02:31:52.097Z,97241.00
2022-11-16T02:34:26.079Z,97243.00
2022-11-16T02:36:55.015Z,97234.00
2022-11-16T02:39:24.557Z,97234.00
2022-11-16T02:41:52.624Z,97229.00
2022-11-16T02:44:22.871Z,97228.00
2022-11-16T02:46:57.347Z,97224.00
2022-11-16T02:49:25.418Z,97223.00
2022-11-16T02:51:53.551Z,97230.00
2022-11-16T02:54:22.272Z,97222.00
2022-11-16T02:56:53.807Z,97223.00
2022-11-16T02:59:24.009Z,97222.00
2022-11-16T03:01:54.576Z,97219.00
2022-11-16T03:04:24.459Z,97213.00
2022-11-16T03:06:52.684Z,97223.00
2022-11-16T03:09:22.682Z,97234.00
2022-11-16T03:12:00.188Z,97216.00
2022-11-16T03:14:32.064Z,97222.00
2022-11-16T03:17:00.090Z,97225.00
2022-11-16T03:19:30.864Z,97207.00
2022-11-16T03:22:00.124Z,97232.00
2022-11-16T03:24:28.152Z,97228.00
2022-11-16T03:26:58.881Z,97212.00
2022-11-16T03:29:28.452Z,97215.00
2022-11-16T03:31:58.721Z,97183.00
2022-11-16T03:34:28.282Z,97220.00
2022-11-16T03:36:56.283Z,97236.00
2022-11-16T03:39:26.162Z,97236.00
2022-11-16T03:41:54.134Z,97230.00
2022-11-16T03:44:22.143Z,97239.00
2022-11-16T03:46:50.141Z,97223.00
2022-11-16T03:49:21.504Z,97235.00
2022-11-16T03:51:50.219Z,97234.00
2022-11-16T03:54:18.445Z,97180.00
2022-11-16T03:56:46.507Z,97238.00
2022-11-16T03:59:14.523Z,97225.00
2022-11-16T04:01:44.922Z,97232.00
2022-11-16T04:04:33.221Z,97215.00
2022-11-16T04:07:20.143Z,97236.00
2022-11-16T04:10:05.709Z,97237.00
2022-11-16T04:12:51.532Z,97226.00
2022-11-16T04:15:36.922Z,97226.00
2022-11-16T04:18:22.602Z,97231.00
2022-11-16T04:21:08.091Z,97229.00
2022-11-16T04:23:54.855Z,97224.00
2022-11-16T04:26:42.923Z,97213.00
2022-11-16T04:29:09.915Z,97229.00
2022-11-16T04:31:55.604Z,97206.00
2022-11-16T04:34:41.217Z,97181.00
2022-11-16T04:37:27.229Z,97171.00
2022-11-16T04:39:56.599Z,97222.00
2022-11-16T04:42:24.622Z,97213.00
2022-11-16T04:45:11.475Z,97213.00
2022-11-16T04:47:39.473Z,97217.00
2022-11-16T04:50:08.049Z,97172.00
2022-11-16T04:52:36.124Z,97188.00
2022-11-16T04:55:06.375Z,97135.00
2022-11-16T04:57:34.391Z,97189.00
2022-11-16T05:00:02.445Z,97132.00
2022-11-16T05:02:31.337Z,97160.00
2022-11-16T05:04:59.379Z,97187.00
2022-11-16T05:07:27.544Z,97208.00
2022-11-16T05:09:55.667Z,97164.00
2022-11-16T05:12:26.216Z,97183.00
2022-11-16T05:14:55.240Z,97161.00
2022-11-16T05:17:23.481Z,97160.00
2022-11-16T05:20:08.864Z,97109.00
2022-11-16T05:22:37.855Z,97160.00
2022-11-16T05:25:06.417Z,97188.00
2022-11-16T05:27:36.193Z,97169.00
2022-11-16T05:30:04.535Z,97158.00
2022-11-16T05:32:32.556Z,97165.00
2022-11-16T05:35:00.633Z,97179.00
2022-11-16T05:37:30.456Z,97161.00
2022-11-16T05:39:58.502Z,97139.00
2022-11-16T05:42:26.615Z,97170.00
2022-11-16T05:44:56.039Z,97111.00
2022-11-16T05:47:24.087Z,97114.00
2022-11-16T05:49:52.273Z,97168.00
2022-11-16T05:52:20.276Z,97158.00
2022-11-16T05:54:48.218Z,97170.00
2022-11-16T05:57:17.472Z,97172.00
2022-11-16T05:59:45.504Z,97163.00
2022-11-16T06:02:14.975Z,97175.00
2022-11-16T06:04:43.071Z,97094.00
2022-11-16T06:07:11.198Z,97181.00
2022-11-16T06:09:39.292Z,97156.00
2022-11-16T06:12:09.225Z,97153.00
2022-11-16T06:14:37.311Z,97168.00
2022-11-16T06:17:05.391Z,97123.00
2022-11-16T06:19:35.848Z,97117.00
2022-11-16T06:22:03.895Z,97189.00
2022-11-16T06:24:32.066Z,97187.00
2022-11-16T06:27:00.188Z,97169.00
2022-11-16T06:29:28.303Z,97158.00
2022-11-16T06:31:56.366Z,97189.00
2022-11-16T06:34:25.499Z,97163.00
2022-11-16T06:36:54.952Z,97177.00
2022-11-16T06:39:23.033Z,97207.00
2022-11-16T06:41:51.094Z,97167.00
2022-11-16T06:44:19.116Z,97224.00
2022-11-16T06:46:47.187Z,97137.00
2022-11-16T06:49:15.212Z,97215.00
2022-11-16T06:51:43.312Z,97171.00
2022-11-16T06:54:12.749Z,97223.00
2022-11-16T06:56:46.829Z,97140.00
2022-11-16T06:59:14.995Z,97136.00
2022-11-16T07:01:43.831Z,97166.00
2022-11-16T07:04:12.322Z,97148.00
2022-11-16T07:06:41.277Z,97140.00
2022-11-16T07:09:09.527Z,97182.00
2022-11-16T07:11:41.306Z,97255.00
2022-11-16T07:14:09.587Z,97214.00
2022-11-16T07:16:37.755Z,97221.00
2022-11-16T07:19:06.284Z,97184.00
2022-11-16T07:21:34.481Z,97221.00
2022-11-16T07:24:02.653Z,97213.00
2022-11-16T07:26:31.291Z,97181.00
2022-11-16T07:29:00.816Z,97224.00
2022-11-16T07:31:29.064Z,97178.00
2022-11-16T07:33:59.084Z,97166.00
2022-11-16T07:36:27.236Z,97169.00
2022-11-16T07:38:55.444Z,97214.00
2022-11-16T07:41:23.751Z,97248.00
2022-11-16T07:43:53.377Z,97198.00
2022-11-16T07:49:15.058Z,97199.00
2022-11-16T07:51:43.303Z,97197.00
2022-11-16T07:54:13.131Z,97201.00
2022-11-16T07:56:41.286Z,97256.00
2022-11-16T07:59:09.587Z,97241.00
2022-11-16T08:01:39.423Z,97227.00
2022-11-16T08:04:07.762Z,97261.00
2022-11-16T08:06:35.922Z,97213.00
2022-11-16T08:09:04.130Z,97263.00
2022-11-16T08:11:32.273Z,97261.00
2022-11-16T08:14:00.747Z,97259.00
2022-11-16T08:16:28.976Z,97190.00
2022-11-16T08:18:58.610Z,97266.00
2022-11-16T08:21:26.732Z,97253.00
2022-11-16T08:23:58.390Z,97233.00
2022-11-16T08:26:27.242Z,97246.00
2022-11-16T08:28:56.700Z,97206.00
2022-11-16T08:31:26.023Z,97292.00
2022-11-16T08:33:54.238Z,97230.00
2022-11-16T08:36:23.779Z,97228.00
2022-11-16T08:38:52.316Z,97253.00
2022-11-16T08:41:20.805Z,97252.00
2022-11-16T08:43:50.814Z,97191.00
2022-11-16T08:46:19.104Z,97212.00
2022-11-16T08:48:47.728Z,97276.00
2022-11-16T08:51:19.437Z,97239.00
2022-11-16T08:53:49.790Z,97224.00
2022-11-16T08:56:18.842Z,97260.00
2022-11-16T08:58:53.755Z,97238.00
2022-11-16T09:01:26.227Z,97180.00
2022-11-16T09:03:54.447Z,97215.00
2022-11-16T09:06:22.803Z,97243.00
2022-11-16T09:08:52.334Z,97258.00
2022-11-16T09:11:21.830Z,97286.00
2022-11-16T09:13:50.739Z,97267.00
2022-11-16T09:16:20.878Z,97253.00
2022-11-16T09:18:49.765Z,97255.00
2022-11-16T09:21:19.356Z,97261.00
2022-11-16T09:23:48.127Z,97277.00
2022-11-16T09:26:20.587Z,97258.00
2022-11-16T09:28:49.369Z,97204.00
2022-11-16T09:31:22.969Z,97290.00
2022-11-16T09:33:51.849Z,97241.00
2022-11-16T09:36:20.651Z,97282.00
2022-11-16T09:39:28.980Z,97196.00
2022-11-16T09:41:56.083Z,97184.00
2022-11-16T09:44:40.367Z,97282.00
2022-11-16T15:32:15.870Z,97142.00
2022-11-16T15:34:43.942Z,97138.00
2022-11-16T15:37:12.407Z,97132.00
2022-11-16T15:39:40.486Z,97135.00
2022-11-16T15:42:10.246Z,97136.00
2022-11-16T15:44:39.248Z,97137.00
2022-11-16T15:47:07.468Z,97131.00
2022-11-16T15:49:38.415Z,97138.00
2022-11-16T15:52:06.592Z,97147.00
2022-11-16T15:54:55.631Z,97145.00
2022-11-16T15:57:24.480Z,97140.00
2022-11-16T15:59:54.644Z,97140.00
2022-11-16T16:02:23.885Z,97143.00
2022-11-16T16:04:53.367Z,97131.00
2022-11-16T16:07:37.009Z,97117.00
2022-11-16T16:10:15.448Z,97133.00
2022-11-16T16:12:48.474Z,97132.00
2022-11-16T16:15:23.830Z,97127.00
2022-11-16T16:17:52.022Z,97131.00
2022-11-16T16:20:22.411Z,97129.00
2022-11-16T16:22:50.531Z,97136.00
2022-11-16T16:25:36.920Z,97135.00
2022-11-16T16:28:05.058Z,97134.00
2022-11-16T16:30:33.174Z,97127.00
2022-11-16T16:33:02.281Z,97129.00
2022-11-16T16:35:32.035Z,97119.00
2022-11-16T16:38:01.890Z,97099.00
2022-11-16T16:40:30.303Z,97116.00
2022-11-16T16:42:58.893Z,97111.00
2022-11-16T16:45:32.171Z,97105.00
2022-11-16T16:48:02.088Z,97104.00
2022-11-16T16:50:31.688Z,97101.00
2022-11-16T16:52:59.818Z,97110.00
2022-11-16T16:55:29.763Z,97109.00
2022-11-16T16:58:02.946Z,97115.00
2022-11-16T17:00:31.257Z,97128.00
2022-11-16T17:02:59.550Z,97125.00
2022-11-16T17:05:27.703Z,97115.00
2022-11-16T17:07:57.449Z,97120.00
2022-11-16T17:10:25.540Z,97120.00
2022-11-16T17:12:54.426Z,97123.00
2022-11-16T17:15:22.854Z,97118.00
2022-11-16T17:17:51.048Z,97121.00
2022-11-16T17:20:19.336Z,97119.00
2022-11-16T17:22:47.519Z,97124.00
2022-11-16T17:25:17.093Z,97123.00
2022-11-16T17:27:45.247Z,97119.00
2022-11-16T17:30:14.540Z,97113.00
2022-11-16T17:32:42.764Z,97109.00
2022-11-16T17:35:11.100Z,97110.00
2022-11-16T17:37:39.516Z,97091.00
2022-11-16T17:40:09.015Z,97097.00
2022-11-16T17:42:38.625Z,97096.00
2022-11-16T17:45:07.720Z,97093.00
2022-11-16T17:47:35.936Z,97104.00
2022-11-16T17:50:04.342Z,97089.00
2022-11-16T17:52:32.506Z,97089.00
2022-11-16T17:55:00.760Z,97085.00
2022-11-16T17:57:28.881Z,97079.00
2022-11-16T17:59:58.422Z,97092.00
2022-11-16T18:02:26.695Z,97084.00
2022-11-16T18:04:55.044Z,97082.00
2022-11-16T18:07:23.241Z,97083.00
2022-11-16T18:09:51.421Z,97083.00
2022-11-16T18:12:19.678Z,97080.00
2022-11-16T18:15:13.509Z,97075.00
2022-11-16T18:17:37.554Z,97091.00
2022-11-16T18:20:08.143Z,97070.00
2022-11-16T18:22:36.333Z,97072.00
2022-11-16T18:25:04.963Z,97077.00
2022-11-16T18:27:33.426Z,97088.00
2022-11-16T18:30:01.522Z,97083.00
2022-11-16T18:32:30.004Z,97070.00
2022-11-16T18:34:59.579Z,97065.00
2022-11-16T18:37:27.721Z,97059.00
2022-11-16T18:39:55.944Z,97063.00
2022-11-16T18:42:24.109Z,97063.00
2022-11-16T18:44:52.220Z,97060.00
2022-11-16T18:47:20.298Z,97061.00
2022-11-16T18:49:48.539Z,97045.00
2022-11-16T18:52:18.167Z,97043.00
2022-11-16T18:54:46.203Z,97050.00
2022-11-16T18:57:14.327Z,97056.00
2022-11-16T18:59:42.526Z,97052.00
2022-11-16T19:02:12.528Z,97048.00
2022-11-16T19:04:41.135Z,97052.00
2022-11-16T19:07:13.110Z,97042.00
2022-11-16T19:09:42.665Z,97034.00
2022-11-16T19:12:10.944Z,97037.00
2022-11-16T19:14:39.367Z,97040.00
2022-11-16T19:17:07.459Z,97047.00
2022-11-16T19:19:35.607Z,97042.00
2022-11-16T19:22:03.677Z,97042.00
2022-11-16T19:24:31.958Z,97029.00
2022-11-16T19:27:01.493Z,97020.00
2022-11-16T19:29:29.704Z,97013.00
2022-11-16T19:31:57.914Z,97020.00
2022-11-16T19:34:31.988Z,97029.00
2022-11-16T19:37:01.433Z,97023.00
2022-11-16T19:39:32.188Z,97029.00
2022-11-16T19:42:01.897Z,97027.00
2022-11-16T19:44:30.126Z,97025.00
2022-11-16T19:46:59.325Z,97030.00
2022-11-16T19:49:27.568Z,97017.00
2022-11-16T19:51:55.642Z,97027.00
2022-11-16T19:54:23.778Z,97022.00
2022-11-16T19:56:55.053Z,97015.00
2022-11-16T19:59:24.859Z,97018.00
2022-11-16T20:01:52.898Z,97021.00
2022-11-16T20:04:21.023Z,97015.00
2022-11-16T20:06:50.390Z,97017.00
2022-11-16T20:09:38.382Z,97018.00
2022-11-16T20:19:48.252Z,97022.00
2022-11-16T20:23:41.848Z,97015.00
2022-11-16T20:49:54.126Z,97016.00
2022-11-16T20:55:56.395Z,97015.00
2022-11-16T20:58:30.652Z,97013.00
2022-11-16T21:01:01.013Z,97007.00
2022-11-16T21:03:29.311Z,97000.00
2022-11-16T21:05:58.877Z,96999.00
2022-11-16T21:08:27.238Z,96998.00
2022-11-16T21:10:55.465Z,97002.00
2022-11-16T21:13:41.420Z,97001.00
2022-11-16T21:16:11.858Z,96997.00
2022-11-16T21:18:40.300Z,97009.00
